sensor_id;sensor_type;location;lat;lon;timestamp;temperature;humidity
3416;DHT22;1721;51.238;9.562;2022-09-13T00:00:27;17.70;91.60
3416;DHT22;1721;51.238;9.562;2022-09-13T00:02:53;17.80;91.40
3416;DHT22;1721;51.238;9.562;2022-09-13T00:05:19;17.80;91.60
3416;DHT22;1721;51.238;9.562;2022-09-13T00:07:44;17.80;91.50
3416;DHT22;1721;51.238;9.562;2022-09-13T00:10:10;18.00;91.40
3416;DHT22;1721;51.238;9.562;2022-09-13T00:12:36;17.70;91.30
3416;DHT22;1721;51.238;9.562;2022-09-13T00:15:02;17.70;91.60
3416;DHT22;1721;51.238;9.562;2022-09-13T00:17:28;17.90;91.40
3416;DHT22;1721;51.238;9.562;2022-09-13T00:19:53;18.00;91.70
3416;DHT22;1721;51.238;9.562;2022-09-13T00:22:19;17.80;91.30
3416;DHT22;1721;51.238;9.562;2022-09-13T00:24:44;17.80;91.60
3416;DHT22;1721;51.238;9.562;2022-09-13T00:27:10;17.90;91.40
3416;DHT22;1721;51.238;9.562;2022-09-13T00:29:37;17.70;91.50
3416;DHT22;1721;51.238;9.562;2022-09-13T00:32:03;17.90;91.50
3416;DHT22;1721;51.238;9.562;2022-09-13T00:34:28;17.90;91.40
3416;DHT22;1721;51.238;9.562;2022-09-13T00:36:54;17.70;91.80
3416;DHT22;1721;51.238;9.562;2022-09-13T00:39:19;17.90;91.60
3416;DHT22;1721;51.238;9.562;2022-09-13T00:41:45;17.90;91.70
3416;DHT22;1721;51.238;9.562;2022-09-13T00:47:40;18.00;91.60
3416;DHT22;1721;51.238;9.562;2022-09-13T00:52:45;18.20;91.30
3416;DHT22;1721;51.238;9.562;2022-09-13T00:55:40;18.20;91.30
3416;DHT22;1721;51.238;9.562;2022-09-13T00:58:10;18.20;91.20
3416;DHT22;1721;51.238;9.562;2022-09-13T01:00:38;18.10;91.50
3416;DHT22;1721;51.238;9.562;2022-09-13T01:03:07;18.10;91.30
3416;DHT22;1721;51.238;9.562;2022-09-13T01:05:41;18.10;91.30
3416;DHT22;1721;51.238;9.562;2022-09-13T01:08:08;18.20;91.30
3416;DHT22;1721;51.238;9.562;2022-09-13T01:10:41;18.20;91.20
3416;DHT22;1721;51.238;9.562;2022-09-13T01:13:17;18.20;91.20
3416;DHT22;1721;51.238;9.562;2022-09-13T01:15:44;18.20;91.20
3416;DHT22;1721;51.238;9.562;2022-09-13T01:18:10;18.20;91.20
3416;DHT22;1721;51.238;9.562;2022-09-13T01:20:58;18.20;91.30
3416;DHT22;1721;51.238;9.562;2022-09-13T01:23:41;18.00;91.70
3416;DHT22;1721;51.238;9.562;2022-09-13T01:28:57;18.00;91.60
3416;DHT22;1721;51.238;9.562;2022-09-13T01:31:43;18.00;91.70
3416;DHT22;1721;51.238;9.562;2022-09-13T01:36:56;17.80;92.00
3416;DHT22;1721;51.238;9.562;2022-09-13T01:42:59;17.90;92.00
3416;DHT22;1721;51.238;9.562;2022-09-13T01:45:55;17.90;92.00
3416;DHT22;1721;51.238;9.562;2022-09-13T01:48:54;18.00;91.90
3416;DHT22;1721;51.238;9.562;2022-09-13T01:51:39;17.80;92.10
3416;DHT22;1721;51.238;9.562;2022-09-13T01:54:27;17.90;92.10
3416;DHT22;1721;51.238;9.562;2022-09-13T01:57:18;17.80;92.00
3416;DHT22;1721;51.238;9.562;2022-09-13T02:00:08;17.90;92.00
3416;DHT22;1721;51.238;9.562;2022-09-13T02:02:59;17.90;92.00
3416;DHT22;1721;51.238;9.562;2022-09-13T02:05:42;17.90;92.10
3416;DHT22;1721;51.238;9.562;2022-09-13T02:08:14;17.80;92.20
3416;DHT22;1721;51.238;9.562;2022-09-13T02:10:45;17.80;92.10
3416;DHT22;1721;51.238;9.562;2022-09-13T02:13:18;17.80;92.10
3416;DHT22;1721;51.238;9.562;2022-09-13T02:15:46;17.80;92.10
3416;DHT22;1721;51.238;9.562;2022-09-13T02:18:21;17.80;92.30
3416;DHT22;1721;51.238;9.562;2022-09-13T02:20:51;17.80;92.40
3416;DHT22;1721;51.238;9.562;2022-09-13T02:23:23;17.90;92.30
3416;DHT22;1721;51.238;9.562;2022-09-13T02:25:52;18.00;92.20
3416;DHT22;1721;51.238;9.562;2022-09-13T02:28:26;18.00;92.40
3416;DHT22;1721;51.238;9.562;2022-09-13T02:30:53;18.00;92.40
3416;DHT22;1721;51.238;9.562;2022-09-13T02:33:28;18.10;92.30
3416;DHT22;1721;51.238;9.562;2022-09-13T02:36:00;18.20;92.20
3416;DHT22;1721;51.238;9.562;2022-09-13T02:38:32;18.30;92.10
3416;DHT22;1721;51.238;9.562;2022-09-13T02:41:13;18.40;92.00
3416;DHT22;1721;51.238;9.562;2022-09-13T02:43:49;18.40;91.80
3416;DHT22;1721;51.238;9.562;2022-09-13T02:46:39;18.50;92.00
3416;DHT22;1721;51.238;9.562;2022-09-13T02:49:21;18.40;91.90
3416;DHT22;1721;51.238;9.562;2022-09-13T02:55:18;18.30;91.90
3416;DHT22;1721;51.238;9.562;2022-09-13T03:00:21;18.50;91.60
3416;DHT22;1721;51.238;9.562;2022-09-13T03:02:47;18.60;91.60
3416;DHT22;1721;51.238;9.562;2022-09-13T03:05:13;18.70;91.40
3416;DHT22;1721;51.238;9.562;2022-09-13T03:07:39;18.60;91.50
3416;DHT22;1721;51.238;9.562;2022-09-13T03:10:07;18.60;91.50
3416;DHT22;1721;51.238;9.562;2022-09-13T03:15:57;18.30;91.70
3416;DHT22;1721;51.238;9.562;2022-09-13T03:18:32;18.40;91.80
3416;DHT22;1721;51.238;9.562;2022-09-13T03:21:10;18.30;91.80
3416;DHT22;1721;51.238;9.562;2022-09-13T03:29:26;18.60;91.70
3416;DHT22;1721;51.238;9.562;2022-09-13T03:32:47;18.60;91.60
3416;DHT22;1721;51.238;9.562;2022-09-13T03:35:24;18.40;91.70
3416;DHT22;1721;51.238;9.562;2022-09-13T03:40:41;18.40;91.70
3416;DHT22;1721;51.238;9.562;2022-09-13T03:43:09;18.20;92.00
3416;DHT22;1721;51.238;9.562;2022-09-13T03:45:46;18.20;92.10
3416;DHT22;1721;51.238;9.562;2022-09-13T03:48:13;18.20;91.90
3416;DHT22;1721;51.238;9.562;2022-09-13T03:50:39;18.20;91.90
3416;DHT22;1721;51.238;9.562;2022-09-13T03:53:09;18.30;92.00
3416;DHT22;1721;51.238;9.562;2022-09-13T03:55:39;18.10;91.90
3416;DHT22;1721;51.238;9.562;2022-09-13T03:58:05;18.30;91.90
3416;DHT22;1721;51.238;9.562;2022-09-13T04:00:30;18.30;91.70
3416;DHT22;1721;51.238;9.562;2022-09-13T04:02:56;18.30;92.00
3416;DHT22;1721;51.238;9.562;2022-09-13T04:05:22;18.30;91.80
3416;DHT22;1721;51.238;9.562;2022-09-13T04:07:47;18.30;91.90
3416;DHT22;1721;51.238;9.562;2022-09-13T04:10:13;18.40;92.00
3416;DHT22;1721;51.238;9.562;2022-09-13T04:12:39;18.50;91.90
3416;DHT22;1721;51.238;9.562;2022-09-13T04:15:06;18.40;91.80
3416;DHT22;1721;51.238;9.562;2022-09-13T04:17:32;18.50;91.80
3416;DHT22;1721;51.238;9.562;2022-09-13T04:19:57;18.60;91.80
3416;DHT22;1721;51.238;9.562;2022-09-13T04:22:23;18.50;91.70
3416;DHT22;1721;51.238;9.562;2022-09-13T04:24:48;18.50;92.00
3416;DHT22;1721;51.238;9.562;2022-09-13T04:27:14;18.50;91.80
3416;DHT22;1721;51.238;9.562;2022-09-13T04:29:40;18.60;91.90
3416;DHT22;1721;51.238;9.562;2022-09-13T04:32:05;18.50;92.00
3416;DHT22;1721;51.238;9.562;2022-09-13T04:34:31;18.60;92.20
3416;DHT22;1721;51.238;9.562;2022-09-13T04:36:56;18.60;92.20
3416;DHT22;1721;51.238;9.562;2022-09-13T04:39:22;18.60;92.20
3416;DHT22;1721;51.238;9.562;2022-09-13T04:41:50;18.60;92.20
3416;DHT22;1721;51.238;9.562;2022-09-13T04:44:18;18.70;92.10
3416;DHT22;1721;51.238;9.562;2022-09-13T04:46:48;18.80;92.20
3416;DHT22;1721;51.238;9.562;2022-09-13T04:49:15;18.80;92.20
3416;DHT22;1721;51.238;9.562;2022-09-13T04:51:41;18.60;92.30
3416;DHT22;1721;51.238;9.562;2022-09-13T04:54:08;18.70;92.50
3416;DHT22;1721;51.238;9.562;2022-09-13T04:56:35;18.70;92.60
3416;DHT22;1721;51.238;9.562;2022-09-13T04:59:00;18.60;92.80
3416;DHT22;1721;51.238;9.562;2022-09-13T05:01:26;18.50;92.90
3416;DHT22;1721;51.238;9.562;2022-09-13T05:03:51;18.60;93.20
3416;DHT22;1721;51.238;9.562;2022-09-13T05:06:18;18.60;93.00
3416;DHT22;1721;51.238;9.562;2022-09-13T05:08:48;18.70;93.00
3416;DHT22;1721;51.238;9.562;2022-09-13T05:11:13;18.60;93.10
3416;DHT22;1721;51.238;9.562;2022-09-13T05:13:39;18.60;93.20
3416;DHT22;1721;51.238;9.562;2022-09-13T05:16:06;18.60;93.30
3416;DHT22;1721;51.238;9.562;2022-09-13T05:18:34;18.60;93.30
3416;DHT22;1721;51.238;9.562;2022-09-13T05:21:02;18.60;93.40
3416;DHT22;1721;51.238;9.562;2022-09-13T05:23:29;18.50;93.50
3416;DHT22;1721;51.238;9.562;2022-09-13T05:25:56;18.60;93.70
3416;DHT22;1721;51.238;9.562;2022-09-13T05:28:23;18.60;93.50
3416;DHT22;1721;51.238;9.562;2022-09-13T05:31:05;18.60;93.50
3416;DHT22;1721;51.238;9.562;2022-09-13T05:33:34;18.60;93.40
3416;DHT22;1721;51.238;9.562;2022-09-13T05:36:00;18.70;93.30
3416;DHT22;1721;51.238;9.562;2022-09-13T05:38:26;18.80;93.30
3416;DHT22;1721;51.238;9.562;2022-09-13T05:40:56;18.80;93.30
3416;DHT22;1721;51.238;9.562;2022-09-13T05:43:22;18.70;93.10
3416;DHT22;1721;51.238;9.562;2022-09-13T05:45:48;18.80;93.10
3416;DHT22;1721;51.238;9.562;2022-09-13T05:48:14;18.70;93.10
3416;DHT22;1721;51.238;9.562;2022-09-13T05:50:40;18.80;93.10
3416;DHT22;1721;51.238;9.562;2022-09-13T05:53:05;18.80;93.00
3416;DHT22;1721;51.238;9.562;2022-09-13T05:55:31;18.80;93.00
3416;DHT22;1721;51.238;9.562;2022-09-13T05:57:58;18.70;93.10
3416;DHT22;1721;51.238;9.562;2022-09-13T06:00:25;18.80;93.00
3416;DHT22;1721;51.238;9.562;2022-09-13T06:02:50;18.80;93.00
3416;DHT22;1721;51.238;9.562;2022-09-13T06:05:16;18.80;93.00
3416;DHT22;1721;51.238;9.562;2022-09-13T06:07:42;18.70;93.10
3416;DHT22;1721;51.238;9.562;2022-09-13T06:10:09;18.80;93.00
3416;DHT22;1721;51.238;9.562;2022-09-13T06:12:35;18.90;92.90
3416;DHT22;1721;51.238;9.562;2022-09-13T06:15:00;18.90;92.90
3416;DHT22;1721;51.238;9.562;2022-09-13T06:17:26;18.80;93.30
3416;DHT22;1721;51.238;9.562;2022-09-13T06:19:52;18.70;93.00
3416;DHT22;1721;51.238;9.562;2022-09-13T06:22:17;18.60;93.00
3416;DHT22;1721;51.238;9.562;2022-09-13T06:24:43;18.70;93.00
3416;DHT22;1721;51.238;9.562;2022-09-13T06:27:08;18.80;93.00
3416;DHT22;1721;51.238;9.562;2022-09-13T06:29:35;19.00;92.90
3416;DHT22;1721;51.238;9.562;2022-09-13T06:32:04;18.80;92.70
3416;DHT22;1721;51.238;9.562;2022-09-13T06:34:29;18.90;92.60
3416;DHT22;1721;51.238;9.562;2022-09-13T06:36:55;19.00;92.70
3416;DHT22;1721;51.238;9.562;2022-09-13T06:39:20;19.10;92.60
3416;DHT22;1721;51.238;9.562;2022-09-13T06:41:46;19.10;92.90
3416;DHT22;1721;51.238;9.562;2022-09-13T06:44:11;19.20;92.50
3416;DHT22;1721;51.238;9.562;2022-09-13T06:46:37;19.10;92.30
3416;DHT22;1721;51.238;9.562;2022-09-13T06:49:04;19.10;92.40
3416;DHT22;1721;51.238;9.562;2022-09-13T06:51:31;19.30;92.40
3416;DHT22;1721;51.238;9.562;2022-09-13T06:53:57;19.30;92.40
3416;DHT22;1721;51.238;9.562;2022-09-13T06:56:28;19.30;92.40
3416;DHT22;1721;51.238;9.562;2022-09-13T06:59:00;19.40;92.50
3416;DHT22;1721;51.238;9.562;2022-09-13T07:01:32;19.30;92.10
3416;DHT22;1721;51.238;9.562;2022-09-13T07:04:03;19.10;92.30
3416;DHT22;1721;51.238;9.562;2022-09-13T07:06:32;19.20;92.40
3416;DHT22;1721;51.238;9.562;2022-09-13T07:08:59;19.20;92.20
3416;DHT22;1721;51.238;9.562;2022-09-13T07:11:28;19.20;92.20
3416;DHT22;1721;51.238;9.562;2022-09-13T07:13:56;19.30;92.30
3416;DHT22;1721;51.238;9.562;2022-09-13T07:16:24;19.20;92.30
3416;DHT22;1721;51.238;9.562;2022-09-13T07:18:54;19.20;92.20
3416;DHT22;1721;51.238;9.562;2022-09-13T07:21:20;19.30;92.10
3416;DHT22;1721;51.238;9.562;2022-09-13T07:23:46;19.10;92.10
3416;DHT22;1721;51.238;9.562;2022-09-13T07:26:12;18.90;92.20
3416;DHT22;1721;51.238;9.562;2022-09-13T07:28:39;18.90;92.40
3416;DHT22;1721;51.238;9.562;2022-09-13T07:31:24;18.90;92.50
3416;DHT22;1721;51.238;9.562;2022-09-13T07:34:01;18.90;92.40
3416;DHT22;1721;51.238;9.562;2022-09-13T07:36:29;19.10;92.40
3416;DHT22;1721;51.238;9.562;2022-09-13T07:38:54;19.10;92.30
3416;DHT22;1721;51.238;9.562;2022-09-13T07:41:21;19.20;92.30
3416;DHT22;1721;51.238;9.562;2022-09-13T07:43:48;19.10;92.20
3416;DHT22;1721;51.238;9.562;2022-09-13T07:46:16;19.20;92.30
3416;DHT22;1721;51.238;9.562;2022-09-13T07:48:44;19.20;92.20
3416;DHT22;1721;51.238;9.562;2022-09-13T07:51:15;19.10;92.20
3416;DHT22;1721;51.238;9.562;2022-09-13T07:53:42;19.00;92.10
3416;DHT22;1721;51.238;9.562;2022-09-13T07:56:14;19.10;92.10
3416;DHT22;1721;51.238;9.562;2022-09-13T07:58:41;19.20;92.30
3416;DHT22;1721;51.238;9.562;2022-09-13T08:01:15;19.00;92.20
3416;DHT22;1721;51.238;9.562;2022-09-13T08:03:42;19.10;92.30
3416;DHT22;1721;51.238;9.562;2022-09-13T08:06:08;19.10;92.00
3416;DHT22;1721;51.238;9.562;2022-09-13T08:08:35;19.20;92.00
3416;DHT22;1721;51.238;9.562;2022-09-13T08:11:02;19.30;92.10
3416;DHT22;1721;51.238;9.562;2022-09-13T08:13:28;19.30;91.90
3416;DHT22;1721;51.238;9.562;2022-09-13T08:15:56;19.30;91.70
3416;DHT22;1721;51.238;9.562;2022-09-13T08:18:24;19.40;91.90
3416;DHT22;1721;51.238;9.562;2022-09-13T08:20:50;19.70;91.80
3416;DHT22;1721;51.238;9.562;2022-09-13T08:23:16;19.80;92.00
3416;DHT22;1721;51.238;9.562;2022-09-13T08:25:41;19.90;91.60
3416;DHT22;1721;51.238;9.562;2022-09-13T08:28:13;19.90;91.60
3416;DHT22;1721;51.238;9.562;2022-09-13T08:30:39;20.10;91.70
3416;DHT22;1721;51.238;9.562;2022-09-13T08:33:06;20.20;91.40
3416;DHT22;1721;51.238;9.562;2022-09-13T08:35:32;19.90;91.50
3416;DHT22;1721;51.238;9.562;2022-09-13T08:37:59;19.80;91.70
3416;DHT22;1721;51.238;9.562;2022-09-13T08:40:30;19.70;92.00
3416;DHT22;1721;51.238;9.562;2022-09-13T08:43:05;19.80;92.00
3416;DHT22;1721;51.238;9.562;2022-09-13T08:45:34;19.90;91.90
3416;DHT22;1721;51.238;9.562;2022-09-13T08:48:17;20.00;91.90
3416;DHT22;1721;51.238;9.562;2022-09-13T08:50:44;20.00;91.60
3416;DHT22;1721;51.238;9.562;2022-09-13T08:53:23;20.10;91.60
3416;DHT22;1721;51.238;9.562;2022-09-13T08:56:09;20.20;91.60
3416;DHT22;1721;51.238;9.562;2022-09-13T09:06:39;20.70;90.90
3416;DHT22;1721;51.238;9.562;2022-09-13T09:09:09;20.60;91.00
3416;DHT22;1721;51.238;9.562;2022-09-13T09:14:26;20.60;90.70
3416;DHT22;1721;51.238;9.562;2022-09-13T09:17:02;20.70;90.90
3416;DHT22;1721;51.238;9.562;2022-09-13T09:19:33;20.70;90.70
3416;DHT22;1721;51.238;9.562;2022-09-13T09:22:10;20.90;90.80
3416;DHT22;1721;51.238;9.562;2022-09-13T09:24:38;21.00;90.60
3416;DHT22;1721;51.238;9.562;2022-09-13T09:27:13;21.10;90.60
3416;DHT22;1721;51.238;9.562;2022-09-13T09:29:40;21.20;90.60
3416;DHT22;1721;51.238;9.562;2022-09-13T09:40:34;21.80;90.00
3416;DHT22;1721;51.238;9.562;2022-09-13T09:43:13;21.90;89.60
3416;DHT22;1721;51.238;9.562;2022-09-13T09:45:39;22.10;89.80
3416;DHT22;1721;51.238;9.562;2022-09-13T09:48:14;22.10;89.10
3416;DHT22;1721;51.238;9.562;2022-09-13T09:50:48;22.20;88.50
3416;DHT22;1721;51.238;9.562;2022-09-13T09:53:29;22.30;88.00
3416;DHT22;1721;51.238;9.562;2022-09-13T09:58:48;22.30;88.40
3416;DHT22;1721;51.238;9.562;2022-09-13T10:01:26;22.40;87.60
3416;DHT22;1721;51.238;9.562;2022-09-13T10:06:39;22.60;87.50
3416;DHT22;1721;51.238;9.562;2022-09-13T10:09:20;22.60;87.10
3416;DHT22;1721;51.238;9.562;2022-09-13T10:11:53;22.80;86.50
3416;DHT22;1721;51.238;9.562;2022-09-13T10:14:42;22.90;85.80
3416;DHT22;1721;51.238;9.562;2022-09-13T10:17:24;22.80;85.70
3416;DHT22;1721;51.238;9.562;2022-09-13T10:22:22;22.70;86.20
3416;DHT22;1721;51.238;9.562;2022-09-13T10:24:48;22.50;85.90
3416;DHT22;1721;51.238;9.562;2022-09-13T10:27:21;22.30;86.40
3416;DHT22;1721;51.238;9.562;2022-09-13T10:29:52;22.20;87.50
3416;DHT22;1721;51.238;9.562;2022-09-13T10:32:20;22.10;88.40
3416;DHT22;1721;51.238;9.562;2022-09-13T10:34:47;21.90;88.50
3416;DHT22;1721;51.238;9.562;2022-09-13T10:37:20;22.10;88.90
3416;DHT22;1721;51.238;9.562;2022-09-13T10:42:49;22.10;89.00
3416;DHT22;1721;51.238;9.562;2022-09-13T10:45:23;21.90;89.50
3416;DHT22;1721;51.238;9.562;2022-09-13T10:47:52;21.90;90.00
3416;DHT22;1721;51.238;9.562;2022-09-13T10:50:20;22.00;89.50
3416;DHT22;1721;51.238;9.562;2022-09-13T10:52:54;22.10;89.90
3416;DHT22;1721;51.238;9.562;2022-09-13T11:08:45;22.50;89.20
3416;DHT22;1721;51.238;9.562;2022-09-13T11:27:56;22.60;89.10
3416;DHT22;1721;51.238;9.562;2022-09-13T11:30:27;22.80;90.20
3416;DHT22;1721;51.238;9.562;2022-09-13T11:44:51;22.60;88.40
3416;DHT22;1721;51.238;9.562;2022-09-13T11:48:00;22.70;88.70
3416;DHT22;1721;51.238;9.562;2022-09-13T11:51:03;22.70;89.10
3416;DHT22;1721;51.238;9.562;2022-09-13T11:55:58;23.00;88.10
3416;DHT22;1721;51.238;9.562;2022-09-13T11:58:30;22.90;88.00
3416;DHT22;1721;51.238;9.562;2022-09-13T12:01:00;23.10;88.30
3416;DHT22;1721;51.238;9.562;2022-09-13T12:06:10;23.10;88.20
3416;DHT22;1721;51.238;9.562;2022-09-13T12:08:52;23.10;88.40
3416;DHT22;1721;51.238;9.562;2022-09-13T12:11:38;23.40;88.30
3416;DHT22;1721;51.238;9.562;2022-09-13T12:14:11;23.50;87.70
3416;DHT22;1721;51.238;9.562;2022-09-13T12:16:41;23.40;87.90
3416;DHT22;1721;51.238;9.562;2022-09-13T12:19:43;23.60;87.70
3416;DHT22;1721;51.238;9.562;2022-09-13T12:22:10;23.50;86.10
3416;DHT22;1721;51.238;9.562;2022-09-13T12:24:45;23.60;86.30
3416;DHT22;1721;51.238;9.562;2022-09-13T12:30:15;23.70;85.20
3416;DHT22;1721;51.238;9.562;2022-09-13T12:32:42;23.80;85.60
3416;DHT22;1721;51.238;9.562;2022-09-13T12:36:08;23.70;83.80
3416;DHT22;1721;51.238;9.562;2022-09-13T12:38:41;23.50;84.40
3416;DHT22;1721;51.238;9.562;2022-09-13T12:47:11;24.20;85.00
3416;DHT22;1721;51.238;9.562;2022-09-13T12:58:29;23.90;85.80
3416;DHT22;1721;51.238;9.562;2022-09-13T13:01:03;23.80;84.80
3416;DHT22;1721;51.238;9.562;2022-09-13T13:03:35;23.80;84.60
3416;DHT22;1721;51.238;9.562;2022-09-13T13:06:33;24.10;84.20
3416;DHT22;1721;51.238;9.562;2022-09-13T13:09:05;24.00;84.70
3416;DHT22;1721;51.238;9.562;2022-09-13T13:11:42;24.10;84.80
3416;DHT22;1721;51.238;9.562;2022-09-13T13:19:58;24.30;83.10
3416;DHT22;1721;51.238;9.562;2022-09-13T13:25:34;24.40;83.30
3416;DHT22;1721;51.238;9.562;2022-09-13T13:30:52;24.60;83.30
3416;DHT22;1721;51.238;9.562;2022-09-13T13:33:26;24.90;83.20
3416;DHT22;1721;51.238;9.562;2022-09-13T13:35:52;25.00;82.30
3416;DHT22;1721;51.238;9.562;2022-09-13T13:41:05;24.80;81.60
3416;DHT22;1721;51.238;9.562;2022-09-13T13:43:33;25.00;81.60
3416;DHT22;1721;51.238;9.562;2022-09-13T13:46:23;25.00;80.20
3416;DHT22;1721;51.238;9.562;2022-09-13T13:48:49;24.50;79.80
3416;DHT22;1721;51.238;9.562;2022-09-13T13:51:25;24.50;83.10
3416;DHT22;1721;51.238;9.562;2022-09-13T13:53:57;24.70;81.70
3416;DHT22;1721;51.238;9.562;2022-09-13T13:59:26;24.90;81.70
3416;DHT22;1721;51.238;9.562;2022-09-13T14:01:56;25.10;80.80
3416;DHT22;1721;51.238;9.562;2022-09-13T14:04:59;25.20;80.30
3416;DHT22;1721;51.238;9.562;2022-09-13T14:10:40;24.90;79.60
3416;DHT22;1721;51.238;9.562;2022-09-13T14:21:32;24.90;80.10
3416;DHT22;1721;51.238;9.562;2022-09-13T14:24:20;24.70;81.00
3416;DHT22;1721;51.238;9.562;2022-09-13T14:26:50;24.80;81.50
3416;DHT22;1721;51.238;9.562;2022-09-13T14:29:19;24.90;80.50
3416;DHT22;1721;51.238;9.562;2022-09-13T14:31:52;25.00;80.20
3416;DHT22;1721;51.238;9.562;2022-09-13T14:34:24;25.00;79.70
3416;DHT22;1721;51.238;9.562;2022-09-13T14:36:57;24.90;80.80
3416;DHT22;1721;51.238;9.562;2022-09-13T14:39:23;24.90;81.40
3416;DHT22;1721;51.238;9.562;2022-09-13T14:42:01;24.70;79.70
3416;DHT22;1721;51.238;9.562;2022-09-13T14:44:27;24.60;81.30
3416;DHT22;1721;51.238;9.562;2022-09-13T14:49:34;24.70;82.00
3416;DHT22;1721;51.238;9.562;2022-09-13T14:52:09;24.80;81.70
3416;DHT22;1721;51.238;9.562;2022-09-13T14:54:44;25.10;81.60
3416;DHT22;1721;51.238;9.562;2022-09-13T14:57:34;25.30;81.70
3416;DHT22;1721;51.238;9.562;2022-09-13T15:00:22;25.10;81.80
3416;DHT22;1721;51.238;9.562;2022-09-13T15:02:54;25.10;82.00
3416;DHT22;1721;51.238;9.562;2022-09-13T15:05:23;25.10;81.60
3416;DHT22;1721;51.238;9.562;2022-09-13T15:07:49;25.30;81.10
3416;DHT22;1721;51.238;9.562;2022-09-13T15:10:44;25.50;80.80
3416;DHT22;1721;51.238;9.562;2022-09-13T15:13:10;25.70;80.60
3416;DHT22;1721;51.238;9.562;2022-09-13T15:15:38;25.80;80.80
3416;DHT22;1721;51.238;9.562;2022-09-13T15:20:56;25.80;81.50
3416;DHT22;1721;51.238;9.562;2022-09-13T15:23:28;25.80;81.20
3416;DHT22;1721;51.238;9.562;2022-09-13T15:28:57;25.50;81.30
3416;DHT22;1721;51.238;9.562;2022-09-13T15:31:34;25.40;81.50
3416;DHT22;1721;51.238;9.562;2022-09-13T15:37:08;25.30;83.50
3416;DHT22;1721;51.238;9.562;2022-09-13T15:39:49;25.20;83.50
3416;DHT22;1721;51.238;9.562;2022-09-13T15:42:15;25.20;83.30
3416;DHT22;1721;51.238;9.562;2022-09-13T15:44:42;25.20;83.40
3416;DHT22;1721;51.238;9.562;2022-09-13T15:47:15;25.20;83.50
3416;DHT22;1721;51.238;9.562;2022-09-13T15:49:47;25.10;84.10
3416;DHT22;1721;51.238;9.562;2022-09-13T15:52:15;25.00;84.00
3416;DHT22;1721;51.238;9.562;2022-09-13T15:54:42;25.00;84.40
3416;DHT22;1721;51.238;9.562;2022-09-13T15:57:29;24.90;85.10
3416;DHT22;1721;51.238;9.562;2022-09-13T15:59:55;24.90;85.20
3416;DHT22;1721;51.238;9.562;2022-09-13T16:02:26;24.80;88.20
3416;DHT22;1721;51.238;9.562;2022-09-13T16:04:53;24.50;87.70
3416;DHT22;1721;51.238;9.562;2022-09-13T16:07:20;24.40;87.00
3416;DHT22;1721;51.238;9.562;2022-09-13T16:09:46;24.50;86.20
3416;DHT22;1721;51.238;9.562;2022-09-13T16:12:13;24.50;85.60
3416;DHT22;1721;51.238;9.562;2022-09-13T16:14:38;24.30;85.20
3416;DHT22;1721;51.238;9.562;2022-09-13T16:17:06;24.30;84.90
3416;DHT22;1721;51.238;9.562;2022-09-13T16:19:34;24.20;84.10
3416;DHT22;1721;51.238;9.562;2022-09-13T16:22:00;24.10;83.80
3416;DHT22;1721;51.238;9.562;2022-09-13T16:24:26;23.90;83.60
3416;DHT22;1721;51.238;9.562;2022-09-13T16:26:52;23.90;83.70
3416;DHT22;1721;51.238;9.562;2022-09-13T16:29:17;23.70;84.60
3416;DHT22;1721;51.238;9.562;2022-09-13T16:31:43;23.80;85.20
3416;DHT22;1721;51.238;9.562;2022-09-13T16:34:09;23.80;85.10
3416;DHT22;1721;51.238;9.562;2022-09-13T16:36:34;24.00;84.80
3416;DHT22;1721;51.238;9.562;2022-09-13T16:39:00;24.00;84.80
3416;DHT22;1721;51.238;9.562;2022-09-13T16:41:26;24.10;84.30
3416;DHT22;1721;51.238;9.562;2022-09-13T16:43:53;24.10;84.80
3416;DHT22;1721;51.238;9.562;2022-09-13T16:46:19;24.10;85.00
3416;DHT22;1721;51.238;9.562;2022-09-13T16:48:45;24.00;85.30
3416;DHT22;1721;51.238;9.562;2022-09-13T16:51:18;23.80;86.70
3416;DHT22;1721;51.238;9.562;2022-09-13T16:53:44;23.60;87.80
3416;DHT22;1721;51.238;9.562;2022-09-13T16:56:13;23.60;86.20
3416;DHT22;1721;51.238;9.562;2022-09-13T16:58:42;23.70;85.50
3416;DHT22;1721;51.238;9.562;2022-09-13T17:01:10;23.80;85.50
3416;DHT22;1721;51.238;9.562;2022-09-13T17:03:36;23.80;84.80
3416;DHT22;1721;51.238;9.562;2022-09-13T17:06:07;23.80;85.00
3416;DHT22;1721;51.238;9.562;2022-09-13T17:08:35;23.80;84.70
3416;DHT22;1721;51.238;9.562;2022-09-13T17:11:05;23.70;85.00
3416;DHT22;1721;51.238;9.562;2022-09-13T17:13:31;23.70;84.90
3416;DHT22;1721;51.238;9.562;2022-09-13T17:15:57;23.80;85.10
3416;DHT22;1721;51.238;9.562;2022-09-13T17:18:22;23.60;85.60
3416;DHT22;1721;51.238;9.562;2022-09-13T17:20:49;23.40;86.30
3416;DHT22;1721;51.238;9.562;2022-09-13T17:23:15;23.20;87.30
3416;DHT22;1721;51.238;9.562;2022-09-13T17:25:42;23.10;88.20
3416;DHT22;1721;51.238;9.562;2022-09-13T17:28:11;23.00;87.70
3416;DHT22;1721;51.238;9.562;2022-09-13T17:30:37;23.10;87.70
3416;DHT22;1721;51.238;9.562;2022-09-13T17:33:03;23.00;87.70
3416;DHT22;1721;51.238;9.562;2022-09-13T17:35:31;22.90;87.70
3416;DHT22;1721;51.238;9.562;2022-09-13T17:37:57;22.90;88.10
3416;DHT22;1721;51.238;9.562;2022-09-13T17:40:23;22.80;88.40
3416;DHT22;1721;51.238;9.562;2022-09-13T17:42:49;22.70;89.00
3416;DHT22;1721;51.238;9.562;2022-09-13T17:45:15;22.60;89.70
3416;DHT22;1721;51.238;9.562;2022-09-13T17:47:41;22.50;90.20
3416;DHT22;1721;51.238;9.562;2022-09-13T17:50:07;22.40;90.30
3416;DHT22;1721;51.238;9.562;2022-09-13T17:52:33;22.20;91.00
3416;DHT22;1721;51.238;9.562;2022-09-13T17:54:58;22.20;90.80
3416;DHT22;1721;51.238;9.562;2022-09-13T17:57:24;22.10;90.90
3416;DHT22;1721;51.238;9.562;2022-09-13T17:59:49;22.10;91.00
3416;DHT22;1721;51.238;9.562;2022-09-13T18:02:16;22.00;91.10
3416;DHT22;1721;51.238;9.562;2022-09-13T18:04:42;21.90;91.20
3416;DHT22;1721;51.238;9.562;2022-09-13T18:07:07;21.80;91.40
3416;DHT22;1721;51.238;9.562;2022-09-13T18:09:33;21.70;91.60
3416;DHT22;1721;51.238;9.562;2022-09-13T18:11:58;21.70;91.80
3416;DHT22;1721;51.238;9.562;2022-09-13T18:14:24;21.50;92.50
3416;DHT22;1721;51.238;9.562;2022-09-13T18:16:52;21.40;92.40
3416;DHT22;1721;51.238;9.562;2022-09-13T18:19:21;21.40;92.70
3416;DHT22;1721;51.238;9.562;2022-09-13T18:21:47;21.30;92.70
3416;DHT22;1721;51.238;9.562;2022-09-13T18:24:13;21.20;92.80
3416;DHT22;1721;51.238;9.562;2022-09-13T18:26:38;21.20;93.00
3416;DHT22;1721;51.238;9.562;2022-09-13T18:29:08;21.10;93.10
3416;DHT22;1721;51.238;9.562;2022-09-13T18:31:34;21.10;93.30
3416;DHT22;1721;51.238;9.562;2022-09-13T18:34:05;21.10;93.40
3416;DHT22;1721;51.238;9.562;2022-09-13T18:36:34;21.00;93.40
3416;DHT22;1721;51.238;9.562;2022-09-13T18:39:00;21.00;93.50
3416;DHT22;1721;51.238;9.562;2022-09-13T18:41:31;21.00;93.60
3416;DHT22;1721;51.238;9.562;2022-09-13T18:43:57;21.00;93.60
3416;DHT22;1721;51.238;9.562;2022-09-13T18:46:26;21.00;93.80
3416;DHT22;1721;51.238;9.562;2022-09-13T18:48:53;21.00;93.90
3416;DHT22;1721;51.238;9.562;2022-09-13T18:51:21;20.90;94.30
3416;DHT22;1721;51.238;9.562;2022-09-13T18:53:48;20.90;94.30
3416;DHT22;1721;51.238;9.562;2022-09-13T18:56:15;21.00;94.40
3416;DHT22;1721;51.238;9.562;2022-09-13T18:58:42;21.00;94.40
3416;DHT22;1721;51.238;9.562;2022-09-13T19:01:13;21.00;94.50
3416;DHT22;1721;51.238;9.562;2022-09-13T19:04:09;21.00;94.60
3416;DHT22;1721;51.238;9.562;2022-09-13T19:06:34;21.00;94.60
3416;DHT22;1721;51.238;9.562;2022-09-13T19:09:01;21.00;94.70
3416;DHT22;1721;51.238;9.562;2022-09-13T19:11:32;21.00;94.90